PWSweather.com
Personal Weather Stations
Station Observations
KCTCOLEB1
Sandy Brook, Colebrook, CT 06021

Sandy BrookColebrook, CT 06021

Lat: 42.0018, Lon: -73.0825

Elevation: 935

Station Type: Davis Vantage Pro2 + Solar + UV

Latest ConditionsUpdated 5:30:03 AM EST Wednesday, Feb 20, 2019
Currently Today's Max Today's Min Today's Average
Temperature 11.2°F-11.6°C 14.3°F-9.8°C 10.8°F-11.8°C 11.7°F-11.3°C
Dew Point 8.3°F-13.2°C 8.7°F-12.9°C 7.1°F-13.8°C 7.8°F-13.4°C
Winds Calm Calm 1.2 mph -1.9 kmh - - 0.4 mph 0.6 kmh
Wind Gusts 1.2 mph1.9 kmh 2.3 mph3.7 kmh - -
Humidity 88% 88% 78% 84%
Pressure 30.60 in1036.2 mb 30.62 in1036.9 mb 30.58 in1035.6 mb -
Hour Temp Dew Point Humidity Winds Wind Gusts Pressure Precip Precip Rate Daily Precip Total
05:30 AM 11.2°F-11.6°C 8.3°F-13.2°C 88% Calm Calm 1.2 mph1.9 kmh 30.60 in1036.2 mb - 0.00 in0.0 mm 0.00 in0.0 mm
05:20 AM 11.1°F-11.6°C 8.0°F-13.3°C 87% Calm Calm 1.2 mph1.9 kmh 30.60 in1036.2 mb - 0.00 in0.0 mm 0.00 in0.0 mm
05:10 AM 11.0°F-11.7°C 7.9°F-13.4°C 87% Calm Calm -- 30.60 in1036.2 mb - 0.00 in0.0 mm 0.00 in0.0 mm
05:00 AM 10.9°F-11.7°C 7.8°F-13.4°C 87% Calm Calm 1.2 mph1.9 kmh 30.61 in1036.6 mb - 0.00 in0.0 mm 0.00 in0.0 mm
04:50 AM 10.9°F-11.7°C 7.8°F-13.4°C 87% Calm Calm 1.2 mph1.9 kmh 30.61 in1036.6 mb - 0.00 in0.0 mm 0.00 in0.0 mm
04:40 AM 10.9°F-11.7°C 7.8°F-13.4°C 87% 1.2 mph NW1.9 kmh NW 2.3 mph3.7 kmh 30.62 in1036.9 mb - 0.00 in0.0 mm 0.00 in0.0 mm
04:30 AM 10.9°F-11.7°C 7.5°F-13.6°C 86% 1.2 mph NW1.9 kmh NW 1.2 mph1.9 kmh 30.61 in1036.6 mb - 0.00 in0.0 mm 0.00 in0.0 mm
04:20 AM 11.0°F-11.7°C 7.9°F-13.4°C 87% 1.2 mph NW1.9 kmh NW 1.2 mph1.9 kmh 30.61 in1036.6 mb - 0.00 in0.0 mm 0.00 in0.0 mm
04:10 AM 11.1°F-11.6°C 8.0°F-13.3°C 87% 1.2 mph NW1.9 kmh NW 1.2 mph1.9 kmh 30.60 in1036.2 mb - 0.00 in0.0 mm 0.00 in0.0 mm
04:00 AM 11.0°F-11.7°C 7.9°F-13.4°C 87% 1.2 mph NW1.9 kmh NW 2.3 mph3.7 kmh 30.59 in1035.9 mb - 0.00 in0.0 mm 0.00 in0.0 mm
03:50 AM 11.0°F-11.7°C 7.9°F-13.4°C 87% 1.2 mph NW1.9 kmh NW 1.2 mph1.9 kmh 30.59 in1035.9 mb - 0.00 in0.0 mm 0.00 in0.0 mm
03:40 AM 10.9°F-11.7°C 7.8°F-13.4°C 87% 1.2 mph NW1.9 kmh NW 2.3 mph3.7 kmh 30.59 in1035.9 mb - 0.00 in0.0 mm 0.00 in0.0 mm
03:30 AM 10.8°F-11.8°C 7.4°F-13.7°C 86% Calm Calm 1.2 mph1.9 kmh 30.59 in1035.9 mb - 0.00 in0.0 mm 0.00 in0.0 mm
03:20 AM 10.8°F-11.8°C 7.1°F-13.8°C 85% 1.2 mph NW1.9 kmh NW 1.2 mph1.9 kmh 30.59 in1035.9 mb - 0.00 in0.0 mm 0.00 in0.0 mm
03:10 AM 10.8°F-11.8°C 7.2°F-13.8°C 85% Calm Calm -- 30.58 in1035.6 mb - 0.00 in0.0 mm 0.00 in0.0 mm
03:00 AM 11.0°F-11.7°C 7.4°F-13.7°C 85% Calm Calm 1.2 mph1.9 kmh 30.58 in1035.6 mb - 0.00 in0.0 mm 0.00 in0.0 mm
02:50 AM 11.0°F-11.7°C 7.4°F-13.7°C 85% Calm Calm 1.2 mph1.9 kmh 30.59 in1035.9 mb - 0.00 in0.0 mm 0.00 in0.0 mm
02:40 AM 11.2°F-11.6°C 7.6°F-13.6°C 85% Calm Calm -- 30.60 in1036.2 mb - 0.00 in0.0 mm 0.00 in0.0 mm
02:30 AM 11.2°F-11.6°C 7.6°F-13.6°C 85% Calm Calm -- 30.59 in1035.9 mb - 0.00 in0.0 mm 0.00 in0.0 mm
02:20 AM 11.3°F-11.5°C 7.4°F-13.7°C 84% Calm Calm 1.2 mph1.9 kmh 30.59 in1035.9 mb - 0.00 in0.0 mm 0.00 in0.0 mm
02:10 AM 11.4°F-11.4°C 7.5°F-13.6°C 84% Calm Calm 1.2 mph1.9 kmh 30.60 in1036.2 mb - 0.00 in0.0 mm 0.00 in0.0 mm
02:00 AM 11.6°F-11.3°C 7.7°F-13.5°C 84% Calm Calm 1.2 mph1.9 kmh 30.60 in1036.2 mb - 0.00 in0.0 mm 0.00 in0.0 mm
01:50 AM 11.7°F-11.3°C 7.8°F-13.4°C 84% Calm Calm 1.2 mph1.9 kmh 30.59 in1035.9 mb - 0.00 in0.0 mm 0.00 in0.0 mm
01:40 AM 11.8°F-11.2°C 7.6°F-13.6°C 83% Calm Calm 1.2 mph1.9 kmh 30.60 in1036.2 mb - 0.00 in0.0 mm 0.00 in0.0 mm
01:30 AM 11.9°F-11.2°C 7.7°F-13.5°C 83% 1.2 mph NW1.9 kmh NW 1.2 mph1.9 kmh 30.60 in1036.2 mb - 0.00 in0.0 mm 0.00 in0.0 mm
01:20 AM 12.1°F-11.1°C 7.9°F-13.4°C 83% 1.2 mph NW1.9 kmh NW 1.2 mph1.9 kmh 30.59 in1035.9 mb - 0.00 in0.0 mm 0.00 in0.0 mm
01:10 AM 12.2°F-11.0°C 7.8°F-13.4°C 82% Calm Calm 2.3 mph3.7 kmh 30.59 in1035.9 mb - 0.00 in0.0 mm 0.00 in0.0 mm
01:00 AM 12.4°F-10.9°C 7.7°F-13.5°C 81% Calm Calm 1.2 mph1.9 kmh 30.59 in1035.9 mb - 0.00 in0.0 mm 0.00 in0.0 mm
12:50 AM 12.8°F-10.7°C 7.8°F-13.4°C 80% Calm Calm 2.3 mph3.7 kmh 30.59 in1035.9 mb - 0.00 in0.0 mm 0.00 in0.0 mm
12:40 AM 13.1°F-10.5°C 7.8°F-13.4°C 79% Calm Calm -- 30.58 in1035.6 mb - 0.00 in0.0 mm 0.00 in0.0 mm
12:30 AM 13.4°F-10.3°C 8.1°F-13.3°C 79% Calm Calm -- 30.58 in1035.6 mb - 0.00 in0.0 mm 0.00 in0.0 mm
12:20 AM 13.6°F-10.2°C 8.3°F-13.2°C 79% Calm Calm -- 30.58 in1035.6 mb - 0.00 in0.0 mm 0.00 in0.0 mm
12:10 AM 13.9°F-10.1°C 8.6°F-13.0°C 79% Calm Calm 1.2 mph1.9 kmh 30.58 in1035.6 mb - 0.00 in0.0 mm 0.00 in0.0 mm
12:00 AM 14.3°F-9.8°C 8.7°F-12.9°C 78% Calm Calm -- 30.58 in1035.6 mb - 0.00 in0.0 mm 0.00 in0.0 mm